Time;durP1;ratioP1;P1;durP2;ratioP2;P2;SDS_P1;SDS_P2;PMS_P1;PMS_P2;Temp;Humidity;BMP_temperature;BMP_pressure;BME280_temperature;BME280_humidity;BME280_pressure;Samples;Min_cycle;Max_cycle;Signal;HPM_P1;HPM_P2
2022/04/19 00:23:17;;;;;;;13.05;7.28;;;;;;;;;;4251620;28;20081;-59
2022/04/19 00:25:46;;;;;;;12.20;7.00;;;;;;;;;;4216685;34;20108;-59
2022/04/19 00:28:12;;;;;;;21.23;9.52;;;;;;;;;;4219010;34;20125;-59
2022/04/19 00:30:38;;;;;;;16.33;8.90;;;;;;;;;;4218906;34;20093;-60
2022/04/19 00:33:05;;;;;;;18.35;9.18;;;;;;;;;;4218930;34;20124;-60
2022/04/19 00:35:31;;;;;;;15.70;8.27;;;;;;;;;;4206036;34;20097;-60
2022/04/19 00:37:59;;;;;;;13.82;7.50;;;;;;;;;;4218760;34;20128;-60
2022/04/19 00:40:25;;;;;;;12.45;8.38;;;;;;;;;;4218891;34;20129;-60
2022/04/19 00:42:53;;;;;;;14.43;8.07;;;;;;;;;;4218913;34;20477;-60
2022/04/19 00:45:19;;;;;;;16.35;9.63;;;;;;;;;;4192400;34;20112;-62
2022/04/19 00:47:45;;;;;;;18.83;9.13;;;;;;;;;;4205242;34;20277;-62
2022/04/19 00:50:11;;;;;;;34.33;13.32;;;;;;;;;;4203570;34;20129;-63
2022/04/19 00:52:38;;;;;;;30.55;13.35;;;;;;;;;;4192204;34;20120;-63
2022/04/19 00:55:07;;;;;;;34.33;14.55;;;;;;;;;;4203449;34;20097;-63
2022/04/19 00:57:34;;;;;;;28.80;15.00;;;;;;;;;;4207573;34;20101;-62
2022/04/19 01:00:00;;;;;;;31.87;15.88;;;;;;;;;;4205728;34;20105;-60
2022/04/19 01:02:27;;;;;;;33.45;17.45;;;;;;;;;;4218692;34;20121;-62
2022/04/19 01:04:55;;;;;;;39.88;17.50;;;;;;;;;;4218646;34;20097;-62
2022/04/19 01:07:22;;;;;;;31.83;17.65;;;;;;;;;;4218948;34;20206;-62
2022/04/19 01:09:48;;;;;;;23.17;15.70;;;;;;;;;;4218502;34;20113;-60
2022/04/19 01:15:06;;;;;;;21.10;14.10;;;;;;;;;;4207567;34;20088;-60
2022/04/19 01:17:40;;;;;;;23.58;14.15;;;;;;;;;;4218826;34;20097;-60
2022/04/19 01:20:07;;;;;;;22.90;14.55;;;;;;;;;;4218614;34;20184;-60
2022/04/19 01:22:37;;;;;;;23.35;13.93;;;;;;;;;;4218931;34;20121;-62
2022/04/19 01:25:04;;;;;;;23.50;14.68;;;;;;;;;;4205662;34;20711;-63
2022/04/19 01:27:30;;;;;;;21.58;14.20;;;;;;;;;;4218686;33;20101;-63
2022/04/19 01:30:00;;;;;;;21.95;13.88;;;;;;;;;;4218318;33;20532;-61
2022/04/19 01:32:30;;;;;;;27.40;15.23;;;;;;;;;;4218367;33;20176;-60
2022/04/19 01:35:09;;;;;;;29.15;15.82;;;;;;;;;;4217946;34;20135;-60
2022/04/19 01:37:36;;;;;;;26.62;16.87;;;;;;;;;;4218497;34;20604;-60
2022/04/19 01:40:18;;;;;;;31.70;17.65;;;;;;;;;;4218481;33;20120;-60
2022/04/19 01:42:58;;;;;;;32.92;18.02;;;;;;;;;;4217976;33;20112;-60
2022/04/19 01:45:31;;;;;;;34.80;17.55;;;;;;;;;;4217152;34;20094;-61
2022/04/19 01:47:58;;;;;;;32.40;17.08;;;;;;;;;;4216957;33;20543;-61
2022/04/19 01:50:26;;;;;;;27.42;17.27;;;;;;;;;;4216772;34;20480;-61
2022/04/19 01:52:53;;;;;;;35.42;17.83;;;;;;;;;;4218102;33;20103;-61
2022/04/19 01:55:20;;;;;;;32.58;17.77;;;;;;;;;;4218154;34;20120;-61
2022/04/19 01:57:47;;;;;;;30.00;16.87;;;;;;;;;;4217129;34;20757;-63
2022/04/19 02:00:14;;;;;;;28.92;16.40;;;;;;;;;;4218074;33;20097;-61
2022/04/19 02:02:40;;;;;;;26.67;15.73;;;;;;;;;;4205164;34;20133;-61
2022/04/19 02:05:07;;;;;;;28.27;16.10;;;;;;;;;;4217916;34;20117;-62
2022/04/19 02:07:33;;;;;;;27.00;15.73;;;;;;;;;;4218282;34;20101;-62
2022/04/19 02:10:04;;;;;;;25.75;14.98;;;;;;;;;;4205001;34;20097;-62
2022/04/19 02:12:31;;;;;;;25.17;16.42;;;;;;;;;;4205689;34;20288;-62
2022/04/19 02:14:57;;;;;;;21.98;15.40;;;;;;;;;;4217443;34;20196;-61
2022/04/19 02:17:23;;;;;;;27.25;15.23;;;;;;;;;;4217923;34;20132;-62
2022/04/19 02:20:04;;;;;;;25.05;15.25;;;;;;;;;;4217762;34;20429;-62
2022/04/19 02:22:30;;;;;;;25.85;16.27;;;;;;;;;;4218229;34;20140;-62
2022/04/19 02:24:58;;;;;;;27.62;17.87;;;;;;;;;;4205084;34;20101;-60
2022/04/19 02:27:25;;;;;;;21.90;16.35;;;;;;;;;;4205139;34;20529;-62
2022/04/19 02:29:51;;;;;;;22.58;16.00;;;;;;;;;;4216231;34;20109;-61
2022/04/19 02:32:18;;;;;;;29.63;15.60;;;;;;;;;;4216728;34;20117;-61
2022/04/19 02:34:43;;;;;;;22.87;14.73;;;;;;;;;;4217643;34;20109;-61
2022/04/19 02:37:10;;;;;;;25.00;15.20;;;;;;;;;;4218010;34;20123;-61
2022/04/19 02:39:39;;;;;;;26.90;13.93;;;;;;;;;;4217730;33;20595;-61
2022/04/19 02:42:06;;;;;;;29.25;14.75;;;;;;;;;;4219562;33;20125;-60
2022/04/19 02:44:32;;;;;;;24.20;14.10;;;;;;;;;;4209078;34;20132;-63
2022/04/19 02:46:59;;;;;;;24.17;14.18;;;;;;;;;;4196280;33;20125;-62
2022/04/19 02:49:25;;;;;;;28.48;14.50;;;;;;;;;;4217111;34;20125;-62
2022/04/19 02:51:51;;;;;;;23.08;12.70;;;;;;;;;;4206849;34;20124;-62
2022/04/19 02:54:17;;;;;;;24.50;13.48;;;;;;;;;;4206888;34;20213;-62
2022/04/19 02:56:43;;;;;;;24.70;13.40;;;;;;;;;;4220059;34;20089;-61
2022/04/19 02:59:09;;;;;;;27.65;13.55;;;;;;;;;;4219853;34;20137;-62
2022/04/19 03:01:36;;;;;;;17.73;11.73;;;;;;;;;;4219699;34;20636;-61
2022/04/19 03:04:02;;;;;;;21.77;12.10;;;;;;;;;;4219623;34;20117;-60
2022/04/19 03:06:28;;;;;;;15.35;10.93;;;;;;;;;;4219715;34;20129;-62
2022/04/19 03:08:54;;;;;;;25.05;12.20;;;;;;;;;;4219507;34;20200;-65
2022/04/19 03:11:20;;;;;;;26.65;12.15;;;;;;;;;;4206667;34;20100;-62
2022/04/19 03:13:46;;;;;;;24.42;12.52;;;;;;;;;;4219795;34;20204;-62
2022/04/19 03:16:14;;;;;;;19.33;11.38;;;;;;;;;;4206576;34;20110;-61
2022/04/19 03:18:43;;;;;;;20.55;10.57;;;;;;;;;;4224011;33;20097;-61
2022/04/19 03:21:13;;;;;;;17.02;11.40;;;;;;;;;;4201281;33;20125;-61
2022/04/19 03:29:09;;;;;;;23.38;12.20;;;;;;;;;;4219443;34;20515;-61
2022/04/19 03:31:36;;;;;;;19.37;10.30;;;;;;;;;;4206521;34;20570;-62
2022/04/19 03:34:03;;;;;;;16.95;9.52;;;;;;;;;;4219376;33;20541;-62
2022/04/19 03:36:29;;;;;;;22.33;10.57;;;;;;;;;;4219379;33;20097;-62
2022/04/19 03:38:56;;;;;;;19.48;9.65;;;;;;;;;;4217967;34;20501;-62
2022/04/19 03:41:22;;;;;;;14.95;9.35;;;;;;;;;;4211647;34;20105;-62
2022/04/19 03:43:48;;;;;;;25.17;9.57;;;;;;;;;;4222149;33;20180;-62
2022/04/19 03:46:14;;;;;;;15.25;9.40;;;;;;;;;;4218827;34;20717;-62
2022/04/19 03:48:40;;;;;;;20.23;9.88;;;;;;;;;;4206347;34;20097;-64
2022/04/19 03:51:06;;;;;;;20.83;10.18;;;;;;;;;;4206035;34;20098;-62
2022/04/19 03:53:32;;;;;;;25.02;11.23;;;;;;;;;;4205717;33;20132;-63
2022/04/19 03:55:58;;;;;;;22.40;9.75;;;;;;;;;;4205129;34;20604;-63
2022/04/19 03:58:26;;;;;;;18.15;10.30;;;;;;;;;;4205134;34;20158;-62
2022/04/19 04:00:55;;;;;;;21.77;10.48;;;;;;;;;;4205149;34;20206;-63
2022/04/19 04:03:23;;;;;;;23.30;10.27;;;;;;;;;;4205257;34;20121;-64
2022/04/19 04:05:49;;;;;;;26.98;10.93;;;;;;;;;;4192270;34;20109;-65
2022/04/19 04:08:15;;;;;;;22.17;10.77;;;;;;;;;;4203823;34;20098;-65
2022/04/19 04:10:41;;;;;;;30.77;10.20;;;;;;;;;;4192156;34;20521;-65
2022/04/19 04:13:07;;;;;;;21.50;11.00;;;;;;;;;;4205222;34;20525;-65
2022/04/19 04:15:33;;;;;;;17.15;9.90;;;;;;;;;;4205167;34;20574;-65
2022/04/19 04:17:59;;;;;;;23.33;9.05;;;;;;;;;;4192164;34;20097;-62
2022/04/19 04:20:25;;;;;;;17.05;9.85;;;;;;;;;;4204945;34;20105;-68
2022/04/19 04:22:51;;;;;;;17.45;9.55;;;;;;;;;;4201691;34;20125;-60
2022/04/19 04:25:17;;;;;;;22.25;8.95;;;;;;;;;;4218320;33;20113;-65
2022/04/19 04:27:43;;;;;;;16.08;8.82;;;;;;;;;;4218655;34;20114;-60
2022/04/19 04:30:10;;;;;;;18.58;9.32;;;;;;;;;;4205794;34;20106;-61
2022/04/19 04:32:36;;;;;;;30.23;10.82;;;;;;;;;;4218234;33;20133;-60
2022/04/19 04:35:01;;;;;;;35.00;11.95;;;;;;;;;;4205178;34;20480;-59
2022/04/19 04:37:27;;;;;;;21.90;10.70;;;;;;;;;;4208764;34;20688;-59
2022/04/19 04:39:53;;;;;;;25.73;10.02;;;;;;;;;;4218678;34;20173;-58
2022/04/19 04:42:19;;;;;;;19.50;10.05;;;;;;;;;;4215540;34;20477;-59
2022/04/19 04:44:45;;;;;;;22.13;11.25;;;;;;;;;;4218473;34;20089;-58
2022/04/19 04:49:59;;;;;;;77.57;14.15;;;;;;;;;;4218494;34;20541;-58
2022/04/19 04:52:25;;;;;;;29.20;11.52;;;;;;;;;;4218861;34;20120;-58
2022/04/19 04:54:51;;;;;;;28.33;11.32;;;;;;;;;;4218529;34;20156;-58
2022/04/19 04:57:19;;;;;;;23.50;11.45;;;;;;;;;;4218792;34;20120;-57
2022/04/19 04:59:47;;;;;;;23.80;11.18;;;;;;;;;;4218697;34;20193;-59
2022/04/19 05:02:13;;;;;;;20.50;10.13;;;;;;;;;;4218802;34;20105;-58
2022/04/19 05:04:39;;;;;;;26.33;10.02;;;;;;;;;;4218500;34;20110;-58
2022/04/19 05:07:05;;;;;;;21.55;10.45;;;;;;;;;;4219008;34;20120;-58
2022/04/19 05:09:31;;;;;;;26.55;11.05;;;;;;;;;;4218339;33;20093;-59
2022/04/19 05:11:57;;;;;;;30.02;11.77;;;;;;;;;;4218367;34;20537;-58
2022/04/19 05:14:23;;;;;;;24.70;11.05;;;;;;;;;;4218557;34;20212;-59
2022/04/19 05:16:49;;;;;;;17.67;9.70;;;;;;;;;;4218484;34;20113;-58
2022/04/19 05:19:15;;;;;;;25.95;9.63;;;;;;;;;;4217383;34;20537;-59
2022/04/19 05:21:41;;;;;;;34.83;11.57;;;;;;;;;;4218674;34;20137;-59
2022/04/19 05:24:09;;;;;;;24.45;10.60;;;;;;;;;;4205326;34;20110;-58
2022/04/19 05:26:35;;;;;;;31.73;10.25;;;;;;;;;;4218409;33;20098;-58
2022/04/19 05:29:02;;;;;;;28.77;11.32;;;;;;;;;;4218353;33;20184;-57
2022/04/19 05:31:28;;;;;;;33.25;11.65;;;;;;;;;;4218643;33;20113;-58
2022/04/19 05:33:54;;;;;;;29.45;11.82;;;;;;;;;;4218386;34;20124;-58
2022/04/19 05:36:22;;;;;;;27.30;10.27;;;;;;;;;;4218660;33;20121;-57
2022/04/19 05:38:52;;;;;;;24.85;11.57;;;;;;;;;;4218343;34;20510;-58
2022/04/19 05:41:21;;;;;;;20.70;11.95;;;;;;;;;;4218319;33;20142;-58
2022/04/19 05:43:49;;;;;;;17.37;11.20;;;;;;;;;;4216972;34;20232;-57
2022/04/19 05:46:17;;;;;;;22.08;12.15;;;;;;;;;;4218534;33;20124;-57
2022/04/19 05:48:44;;;;;;;23.27;11.90;;;;;;;;;;4218220;34;20125;-58
2022/04/19 05:51:11;;;;;;;25.02;11.12;;;;;;;;;;4218325;34;20118;-57
2022/04/19 05:53:37;;;;;;;25.30;11.32;;;;;;;;;;4218248;33;20128;-59
2022/04/19 05:56:03;;;;;;;23.08;11.60;;;;;;;;;;4218190;33;20116;-59
2022/04/19 05:58:29;;;;;;;21.67;13.05;;;;;;;;;;4218447;33;20106;-59
2022/04/19 06:00:55;;;;;;;39.97;16.65;;;;;;;;;;4218326;34;20128;-59
2022/04/19 06:06:07;;;;;;;22.17;10.70;;;;;;;;;;4196128;33;20101;-58
2022/04/19 06:08:33;;;;;;;21.90;9.75;;;;;;;;;;4218190;33;20117;-59
2022/04/19 06:10:59;;;;;;;26.75;9.52;;;;;;;;;;4217928;34;20212;-59
2022/04/19 06:13:25;;;;;;;37.03;9.77;;;;;;;;;;4218125;34;20184;-57
2022/04/19 06:15:51;;;;;;;31.50;10.07;;;;;;;;;;4217971;34;20097;-57
2022/04/19 06:18:17;;;;;;;20.35;8.60;;;;;;;;;;4217974;33;20160;-60
2022/04/19 06:20:43;;;;;;;24.15;9.40;;;;;;;;;;4217832;34;20102;-57
2022/04/19 06:23:11;;;;;;;22.55;8.50;;;;;;;;;;4218371;34;20121;-58
2022/04/19 06:25:37;;;;;;;21.95;10.43;;;;;;;;;;4218865;34;20132;-58
2022/04/19 06:28:04;;;;;;;39.08;11.88;;;;;;;;;;4217734;34;20124;-61
2022/04/19 06:30:29;;;;;;;35.10;12.60;;;;;;;;;;4218841;34;20545;-60
2022/04/19 06:32:55;;;;;;;30.88;11.45;;;;;;;;;;4218939;34;20129;-60
2022/04/19 06:35:22;;;;;;;18.80;9.13;;;;;;;;;;4217338;34;20557;-60
2022/04/19 06:37:48;;;;;;;27.62;10.23;;;;;;;;;;4219141;34;20121;-60
2022/04/19 06:40:14;;;;;;;18.95;8.98;;;;;;;;;;4218810;33;20220;-59
2022/04/19 06:42:40;;;;;;;27.08;9.90;;;;;;;;;;4218912;33;20110;-59
2022/04/19 06:45:07;;;;;;;21.85;11.32;;;;;;;;;;4218923;34;20125;-58
2022/04/19 06:47:34;;;;;;;34.17;10.38;;;;;;;;;;4229539;33;20117;-59
2022/04/19 06:50:02;;;;;;;38.28;14.27;;;;;;;;;;4218798;34;20133;-59
2022/04/19 06:52:28;;;;;;;36.58;14.65;;;;;;;;;;4219030;34;20117;-60
2022/04/19 06:54:55;;;;;;;27.73;13.98;;;;;;;;;;4218763;34;20105;-61
2022/04/19 06:57:20;;;;;;;42.75;14.60;;;;;;;;;;4219056;33;20116;-61
2022/04/19 06:59:46;;;;;;;36.67;14.65;;;;;;;;;;4219127;33;20517;-60
2022/04/19 07:02:13;;;;;;;34.33;13.73;;;;;;;;;;4218797;33;20126;-61
2022/04/19 07:04:40;;;;;;;31.33;13.48;;;;;;;;;;4218724;34;20090;-59
2022/04/19 07:07:07;;;;;;;33.85;14.73;;;;;;;;;;4218730;33;20529;-59
2022/04/19 07:09:34;;;;;;;39.28;15.02;;;;;;;;;;4218739;33;20101;-59
2022/04/19 07:11:59;;;;;;;37.15;15.20;;;;;;;;;;4218567;33;20262;-60
2022/04/19 07:14:25;;;;;;;29.37;14.30;;;;;;;;;;4218671;34;20125;-59
2022/04/19 07:16:52;;;;;;;39.60;14.75;;;;;;;;;;4218844;34;20090;-58
2022/04/19 07:19:18;;;;;;;31.83;14.68;;;;;;;;;;4218746;33;20208;-60
2022/04/19 07:27:13;;;;;;;35.55;14.93;;;;;;;;;;4219522;33;20126;-60
2022/04/19 07:29:39;;;;;;;36.70;16.20;;;;;;;;;;4219742;34;20201;-59
2022/04/19 07:32:06;;;;;;;26.33;15.32;;;;;;;;;;4219364;33;20549;-61
2022/04/19 07:34:33;;;;;;;35.22;16.05;;;;;;;;;;4219189;34;20558;-60
2022/04/19 07:36:59;;;;;;;31.10;16.48;;;;;;;;;;4229547;33;20190;-64
2022/04/19 07:39:25;;;;;;;32.90;15.63;;;;;;;;;;4218035;34;20203;-63
2022/04/19 07:41:53;;;;;;;35.72;16.00;;;;;;;;;;4219484;33;20121;-62
2022/04/19 07:44:19;;;;;;;28.75;16.83;;;;;;;;;;4229235;33;20101;-62
2022/04/19 07:46:45;;;;;;;37.20;18.92;;;;;;;;;;4219362;33;20193;-61
2022/04/19 07:49:12;;;;;;;34.38;16.60;;;;;;;;;;4219264;34;20220;-62
2022/04/19 07:51:38;;;;;;;32.53;17.50;;;;;;;;;;4219401;33;20145;-63
2022/04/19 07:54:04;;;;;;;34.83;15.38;;;;;;;;;;4219300;33;20189;-62
2022/04/19 07:56:30;;;;;;;29.75;15.63;;;;;;;;;;4219248;33;20200;-64
2022/04/19 07:58:56;;;;;;;28.25;14.15;;;;;;;;;;4217783;34;20185;-61
2022/04/19 08:01:23;;;;;;;26.98;13.73;;;;;;;;;;4219545;34;20427;-61
2022/04/19 08:03:49;;;;;;;23.27;13.40;;;;;;;;;;4217775;34;20105;-61
2022/04/19 08:06:16;;;;;;;38.45;13.75;;;;;;;;;;4206354;34;20466;-62
2022/04/19 08:08:44;;;;;;;27.92;8.95;;;;;;;;;;4219170;34;20116;-68
2022/04/19 08:11:10;;;;;;;17.42;7.15;;;;;;;;;;4206275;34;20473;-62
2022/04/19 08:13:36;;;;;;;24.83;7.50;;;;;;;;;;4219128;34;20131;-64
2022/04/19 08:16:02;;;;;;;18.98;7.20;;;;;;;;;;4219024;34;20228;-60
2022/04/19 08:18:28;;;;;;;29.65;7.97;;;;;;;;;;4219265;33;20124;-59
2022/04/19 08:20:54;;;;;;;16.15;5.60;;;;;;;;;;4219273;34;20499;-59
2022/04/19 08:23:21;;;;;;;14.13;6.07;;;;;;;;;;4218957;34;20165;-56
2022/04/19 08:25:47;;;;;;;13.35;5.43;;;;;;;;;;4205717;34;20135;-59
2022/04/19 08:28:13;;;;;;;31.50;7.70;;;;;;;;;;4219124;34;20534;-59
2022/04/19 08:30:39;;;;;;;19.42;6.28;;;;;;;;;;4219118;33;20140;-59
2022/04/19 08:33:05;;;;;;;20.67;6.72;;;;;;;;;;4219259;34;20115;-59
2022/04/19 08:35:31;;;;;;;25.52;6.87;;;;;;;;;;4218951;33;20133;-59
2022/04/19 08:37:58;;;;;;;23.40;6.68;;;;;;;;;;4219060;34;20121;-59
2022/04/19 08:40:27;;;;;;;12.13;5.65;;;;;;;;;;4218784;34;20125;-58
2022/04/19 08:42:56;;;;;;;24.00;5.85;;;;;;;;;;4218994;34;20100;-59
2022/04/19 08:45:22;;;;;;;24.87;7.15;;;;;;;;;;4218096;33;20419;-59
2022/04/19 08:47:48;;;;;;;20.23;6.15;;;;;;;;;;4218899;33;20124;-58
2022/04/19 08:50:17;;;;;;;15.77;6.35;;;;;;;;;;4218595;34;20125;-59
2022/04/19 08:52:44;;;;;;;16.20;7.10;;;;;;;;;;4218823;33;20557;-58
2022/04/19 08:57:56;;;;;;;23.58;6.00;;;;;;;;;;4218587;34;20551;-60
2022/04/19 09:00:23;;;;;;;24.98;7.45;;;;;;;;;;4218874;34;20086;-59
2022/04/19 09:02:54;;;;;;;19.92;5.90;;;;;;;;;;4218798;33;20200;-58
2022/04/19 09:05:22;;;;;;;25.05;6.50;;;;;;;;;;4218652;33;20109;-59
2022/04/19 09:07:52;;;;;;;12.57;5.15;;;;;;;;;;4219086;33;20128;-60
2022/04/19 09:10:32;;;;;;;27.08;6.10;;;;;;;;;;4217037;34;20133;-57
2022/04/19 09:13:05;;;;;;;10.73;5.00;;;;;;;;;;4218773;33;20570;-57
2022/04/19 09:15:40;;;;;;;17.92;5.00;;;;;;;;;;4218598;33;20113;-55
2022/04/19 09:18:29;;;;;;;18.70;5.07;;;;;;;;;;4218526;33;20617;-57
2022/04/19 09:20:56;;;;;;;12.75;5.00;;;;;;;;;;4218411;34;20116;-59
2022/04/19 09:23:23;;;;;;;13.88;4.82;;;;;;;;;;4218509;34;20478;-57
2022/04/19 09:25:52;;;;;;;29.35;5.40;;;;;;;;;;4218536;33;20124;-57
2022/04/19 09:28:20;;;;;;;21.02;7.28;;;;;;;;;;4216998;34;20129;-57
2022/04/19 09:30:57;;;;;;;15.57;4.85;;;;;;;;;;4218333;34;20188;-57
2022/04/19 09:33:24;;;;;;;23.25;5.57;;;;;;;;;;4218365;34;20580;-57
2022/04/19 09:35:54;;;;;;;24.02;5.75;;;;;;;;;;4218295;33;20133;-57
2022/04/19 09:38:37;;;;;;;14.50;4.37;;;;;;;;;;4218516;34;20185;-57
2022/04/19 09:41:04;;;;;;;17.58;4.10;;;;;;;;;;4218384;33;20101;-58
2022/04/19 09:43:30;;;;;;;10.90;4.43;;;;;;;;;;4218180;34;20215;-58
2022/04/19 09:45:59;;;;;;;11.70;5.97;;;;;;;;;;4218401;34;20101;-58
2022/04/19 09:48:26;;;;;;;10.88;4.55;;;;;;;;;;4218310;34;20109;-58
2022/04/19 09:51:03;;;;;;;13.23;5.47;;;;;;;;;;4218048;34;20624;-58
2022/04/19 09:53:40;;;;;;;23.85;5.57;;;;;;;;;;4218598;34;20191;-59
2022/04/19 09:56:10;;;;;;;18.05;4.78;;;;;;;;;;4218101;33;20461;-57
2022/04/19 09:58:38;;;;;;;14.55;4.65;;;;;;;;;;4218013;34;20207;-58
2022/04/19 10:01:05;;;;;;;23.27;5.25;;;;;;;;;;4218476;33;20136;-58
2022/04/19 10:09:05;;;;;;;20.50;5.03;;;;;;;;;;4218089;34;20090;-58
2022/04/19 10:11:31;;;;;;;11.80;4.35;;;;;;;;;;4218081;34;20129;-57
2022/04/19 10:13:57;;;;;;;32.10;6.60;;;;;;;;;;4217857;34;20097;-57
2022/04/19 10:16:24;;;;;;;18.77;6.32;;;;;;;;;;4218081;33;20176;-59
2022/04/19 10:18:50;;;;;;;16.02;5.07;;;;;;;;;;4218129;34;20116;-58
2022/04/19 10:21:21;;;;;;;23.90;4.60;;;;;;;;;;4217769;34;20120;-56
2022/04/19 10:23:47;;;;;;;8.90;5.28;;;;;;;;;;4217950;33;20445;-59
2022/04/19 10:26:22;;;;;;;13.60;5.00;;;;;;;;;;4204908;34;20156;-58
2022/04/19 10:28:50;;;;;;;18.50;4.80;;;;;;;;;;4217956;33;20482;-57
2022/04/19 10:31:31;;;;;;;30.62;5.47;;;;;;;;;;4217831;34;20505;-58
2022/04/19 10:34:04;;;;;;;15.18;5.15;;;;;;;;;;4217874;33;20153;-57
2022/04/19 10:36:34;;;;;;;21.60;5.10;;;;;;;;;;4217872;34;20108;-58
2022/04/19 10:39:12;;;;;;;11.20;5.22;;;;;;;;;;4217664;33;20522;-56
2022/04/19 10:41:48;;;;;;;20.33;5.18;;;;;;;;;;4217915;34;20136;-57
2022/04/19 10:44:28;;;;;;;12.52;5.15;;;;;;;;;;4217718;34;20104;-57
2022/04/19 10:47:15;;;;;;;16.17;4.70;;;;;;;;;;4217883;33;20113;-54
2022/04/19 10:50:00;;;;;;;14.73;5.47;;;;;;;;;;4217750;33;20121;-53
2022/04/19 10:52:38;;;;;;;19.95;5.05;;;;;;;;;;4216258;34;20121;-52
2022/04/19 10:55:14;;;;;;;25.33;6.10;;;;;;;;;;4217565;34;20201;-54
2022/04/19 11:00:33;;;;;;;14.50;6.57;;;;;;;;;;4217459;34;20164;-53
2022/04/19 11:03:26;;;;;;;15.95;4.78;;;;;;;;;;4215842;34;20220;-53
2022/04/19 11:05:52;;;;;;;16.27;5.22;;;;;;;;;;4200866;34;20226;-54
2022/04/19 11:08:22;;;;;;;13.98;4.47;;;;;;;;;;4217877;34;20200;-52
2022/04/19 11:10:49;;;;;;;25.23;4.72;;;;;;;;;;4219683;33;20128;-50
2022/04/19 11:13:15;;;;;;;12.15;4.57;;;;;;;;;;4219620;33;20194;-55
2022/04/19 11:15:42;;;;;;;23.17;6.00;;;;;;;;;;4219588;33;20101;-55
2022/04/19 11:18:30;;;;;;;18.55;4.82;;;;;;;;;;4219597;33;20127;-54
2022/04/19 11:20:58;;;;;;;21.20;5.60;;;;;;;;;;4219713;34;20125;-46
2022/04/19 11:23:26;;;;;;;18.70;6.45;;;;;;;;;;4219518;33;20196;-53
2022/04/19 11:25:53;;;;;;;16.98;4.40;;;;;;;;;;4219335;33;20106;-51
2022/04/19 11:28:23;;;;;;;19.80;5.35;;;;;;;;;;4219320;33;20136;-54
2022/04/19 11:30:49;;;;;;;17.95;3.85;;;;;;;;;;4219272;33;20097;-54
2022/04/19 11:33:23;;;;;;;10.35;4.43;;;;;;;;;;4219559;34;20125;-51
2022/04/19 11:36:06;;;;;;;20.37;4.97;;;;;;;;;;4219272;33;20554;-53
2022/04/19 11:38:39;;;;;;;23.20;5.72;;;;;;;;;;4219339;33;20120;-54
2022/04/19 11:46:45;;;;;;;11.00;3.67;;;;;;;;;;4219188;34;20117;-54
2022/04/19 11:49:20;;;;;;;7.32;3.45;;;;;;;;;;4219167;34;20120;-52
2022/04/19 11:51:56;;;;;;;;;;;;;;;;;;4218361;34;20126;-52
2022/04/19 11:54:23;;;;;;;7.28;4.10;;;;;;;;;;4215009;33;20000;-52
2022/04/19 11:56:54;;;;;;;23.00;5.22;;;;;;;;;;4214859;34;20141;-54
2022/04/19 11:59:26;;;;;;;14.55;5.55;;;;;;;;;;4217512;33;20113;-50
2022/04/19 12:01:53;;;;;;;24.25;6.28;;;;;;;;;;4219217;34;20102;-51
2022/04/19 12:04:19;;;;;;;24.70;5.62;;;;;;;;;;4219316;33;20558;-51
2022/04/19 12:06:48;;;;;;;14.87;4.60;;;;;;;;;;4219089;33;20108;-54
2022/04/19 12:09:17;;;;;;;23.27;4.80;;;;;;;;;;4219045;34;20208;-48
2022/04/19 12:11:43;;;;;;;18.40;3.40;;;;;;;;;;4219069;33;20108;-55
2022/04/19 12:14:09;;;;;;;8.70;4.03;;;;;;;;;;4217600;34;20123;-58
2022/04/19 12:16:38;;;;;;;16.12;3.78;;;;;;;;;;4219143;33;20109;-50
2022/04/19 12:19:07;;;;;;;15.55;4.07;;;;;;;;;;4218664;34;20229;-55
2022/04/19 12:21:41;;;;;;;17.90;4.45;;;;;;;;;;4217077;34;20597;-55
2022/04/19 12:24:09;;;;;;;24.35;3.92;;;;;;;;;;4219050;33;20104;-55
2022/04/19 12:26:35;;;;;;;9.27;2.50;;;;;;;;;;4218855;33;20615;-55
2022/04/19 12:29:13;;;;;;;8.35;3.08;;;;;;;;;;4217399;34;20116;-54
2022/04/19 12:31:40;;;;;;;12.50;2.87;;;;;;;;;;4218910;33;20389;-55
2022/04/19 12:34:08;;;;;;;8.98;3.05;;;;;;;;;;4218909;34;20176;-54
2022/04/19 12:36:42;;;;;;;13.55;2.65;;;;;;;;;;4218914;34;20097;-54
2022/04/19 12:39:08;;;;;;;30.42;3.92;;;;;;;;;;4218810;33;20140;-56
2022/04/19 12:41:37;;;;;;;10.20;3.12;;;;;;;;;;4218937;34;20117;-54
2022/04/19 12:44:04;;;;;;;17.05;3.17;;;;;;;;;;4219043;34;20537;-54
2022/04/19 12:46:33;;;;;;;22.95;3.60;;;;;;;;;;4219034;33;20118;-55
2022/04/19 12:49:00;;;;;;;20.52;3.50;;;;;;;;;;4218775;33;20188;-53
2022/04/19 12:51:26;;;;;;;32.72;5.12;;;;;;;;;;4218665;34;20109;-55
2022/04/19 12:54:08;;;;;;;21.08;4.75;;;;;;;;;;4218839;34;20097;-55
2022/04/19 12:56:34;;;;;;;16.05;5.95;;;;;;;;;;4217251;34;20212;-56
2022/04/19 12:59:00;;;;;;;23.25;6.65;;;;;;;;;;4218772;33;20097;-53
2022/04/19 13:01:26;;;;;;;18.48;3.90;;;;;;;;;;4218681;33;20200;-55
2022/04/19 13:03:52;;;;;;;16.92;4.07;;;;;;;;;;4218747;33;20116;-53
2022/04/19 13:14:32;;;;;;;11.68;3.20;;;;;;;;;;4218419;33;20220;-54
2022/04/19 13:16:58;;;;;;;16.83;4.15;;;;;;;;;;4218348;34;20125;-52
2022/04/19 13:19:25;;;;;;;18.30;3.67;;;;;;;;;;4218443;33;20220;-54
2022/04/19 13:21:51;;;;;;;9.90;3.28;;;;;;;;;;4218517;34;20145;-56
2022/04/19 13:24:17;;;;;;;8.55;2.47;;;;;;;;;;4218492;34;20209;-51
2022/04/19 13:26:44;;;;;;;17.48;3.22;;;;;;;;;;4218416;33;20492;-54
2022/04/19 13:29:11;;;;;;;23.00;4.60;;;;;;;;;;4218416;34;20108;-54
2022/04/19 13:31:37;;;;;;;16.85;3.53;;;;;;;;;;4218000;33;20154;-54
2022/04/19 13:34:03;;;;;;;23.98;3.50;;;;;;;;;;4218299;34;20133;-52
2022/04/19 13:36:29;;;;;;;12.07;2.97;;;;;;;;;;4218354;34;20512;-57
2022/04/19 13:38:55;;;;;;;10.55;2.75;;;;;;;;;;4218325;34;20093;-54
2022/04/19 13:41:21;;;;;;;18.62;3.00;;;;;;;;;;4218299;34;20113;-53
2022/04/19 13:43:47;;;;;;;9.45;3.10;;;;;;;;;;4218203;34;20224;-54
2022/04/19 13:46:13;;;;;;;12.75;3.42;;;;;;;;;;4218400;34;20200;-51
2022/04/19 13:48:39;;;;;;;13.20;4.07;;;;;;;;;;4216774;34;20117;-50
2022/04/19 13:51:05;;;;;;;16.35;3.62;;;;;;;;;;4218056;33;20117;-52
2022/04/19 13:53:32;;;;;;;35.08;3.90;;;;;;;;;;4218026;34;20550;-53
2022/04/19 13:55:58;;;;;;;19.95;5.05;;;;;;;;;;4218008;34;20511;-54
2022/04/19 13:58:25;;;;;;;15.05;4.05;;;;;;;;;;4218124;34;20219;-55
2022/04/19 14:00:51;;;;;;;19.92;3.55;;;;;;;;;;4217838;34;20533;-58
2022/04/19 14:03:17;;;;;;;12.75;3.60;;;;;;;;;;4216760;33;20116;-53
2022/04/19 14:05:43;;;;;;;20.02;4.00;;;;;;;;;;4217899;34;20108;-55
2022/04/19 14:08:09;;;;;;;8.25;2.62;;;;;;;;;;4216709;34;20102;-56
2022/04/19 14:10:36;;;;;;;13.93;3.50;;;;;;;;;;4217740;34;20109;-52
2022/04/19 14:13:03;;;;;;;26.00;3.80;;;;;;;;;;4217762;34;20470;-54
2022/04/19 14:15:29;;;;;;;14.75;3.22;;;;;;;;;;4218176;34;20129;-54
2022/04/19 14:17:55;;;;;;;13.65;3.72;;;;;;;;;;4217572;34;20533;-51
2022/04/19 14:20:21;;;;;;;16.83;4.28;;;;;;;;;;4213014;33;20212;-57
2022/04/19 14:22:47;;;;;;;20.20;3.87;;;;;;;;;;4215933;34;20226;-55
2022/04/19 14:25:13;;;;;;;16.00;4.65;;;;;;;;;;4217924;34;20137;-57
2022/04/19 14:27:39;;;;;;;24.42;5.20;;;;;;;;;;4217683;33;20477;-53
2022/04/19 14:35:36;;;;;;;20.37;4.10;;;;;;;;;;4216591;34;20097;-55
2022/04/19 14:38:02;;;;;;;22.30;5.15;;;;;;;;;;4217538;34;20212;-57
2022/04/19 14:40:28;;;;;;;25.73;4.87;;;;;;;;;;4217626;33;20109;-57
2022/04/19 14:42:54;;;;;;;13.85;3.92;;;;;;;;;;4218135;34;20214;-56
2022/04/19 14:45:20;;;;;;;14.95;2.97;;;;;;;;;;4219698;34;20118;-57
2022/04/19 14:47:46;;;;;;;15.48;3.80;;;;;;;;;;4219902;34;20212;-56
2022/04/19 14:50:12;;;;;;;27.15;5.80;;;;;;;;;;4214148;34;20248;-58
2022/04/19 14:52:40;;;;;;;15.57;5.12;;;;;;;;;;4194805;34;20208;-59
2022/04/19 14:55:07;;;;;;;20.20;4.75;;;;;;;;;;4219433;34;20131;-58
2022/04/19 14:57:33;;;;;;;19.95;5.15;;;;;;;;;;4219861;34;20582;-63
2022/04/19 15:00:00;;;;;;;11.52;4.45;;;;;;;;;;4219592;34;20199;-58
2022/04/19 15:02:26;;;;;;;13.48;4.82;;;;;;;;;;4219620;34;20113;-57
2022/04/19 15:04:52;;;;;;;3.20;2.37;;;;;;;;;;4219679;34;20217;-59
2022/04/19 15:07:18;;;;;;;1.58;1.48;;;;;;;;;;4219807;34;20129;-58
2022/04/19 15:09:44;;;;;;;18.48;3.70;;;;;;;;;;4219795;33;20093;-57
2022/04/19 15:12:13;;;;;;;1.00;1.00;;;;;;;;;;4219631;34;20127;-58
2022/04/19 15:14:40;;;;;;;21.67;3.25;;;;;;;;;;4219676;34;20216;-58
2022/04/19 15:17:06;;;;;;;15.88;3.55;;;;;;;;;;4219613;34;20204;-58
2022/04/19 15:19:32;;;;;;;13.65;2.80;;;;;;;;;;4219508;34;20101;-55
2022/04/19 15:21:58;;;;;;;16.73;3.40;;;;;;;;;;4219550;33;20112;-59
2022/04/19 15:24:24;;;;;;;7.55;2.10;;;;;;;;;;4219752;34;20283;-57
2022/04/19 15:26:50;;;;;;;5.62;2.97;;;;;;;;;;4219167;34;20097;-56
2022/04/19 15:29:17;;;;;;;6.35;2.87;;;;;;;;;;4219754;34;20133;-56
2022/04/19 15:31:43;;;;;;;0.90;0.90;;;;;;;;;;4219570;34;20112;-55
2022/04/19 15:34:09;;;;;;;7.80;2.78;;;;;;;;;;4219522;34;20125;-58
2022/04/19 15:36:35;;;;;;;12.37;2.62;;;;;;;;;;4219342;34;20109;-58
2022/04/19 15:39:01;;;;;;;16.40;3.72;;;;;;;;;;4219479;34;20127;-53
2022/04/19 15:41:27;;;;;;;8.23;4.05;;;;;;;;;;4195152;34;20318;-54